createdAt,value
2018-08-07T00:01:07.754Z,4.43
2018-08-07T00:03:35.785Z,4.07
2018-08-07T00:06:03.867Z,5.00
2018-08-07T00:08:31.906Z,4.23
2018-08-07T00:10:59.903Z,4.20
2018-08-07T00:13:27.939Z,4.60
2018-08-07T00:15:56.040Z,3.83
2018-08-07T00:18:24.053Z,4.50
2018-08-07T00:20:52.063Z,4.67
2018-08-07T00:23:20.077Z,4.53
2018-08-07T00:25:48.096Z,4.80
2018-08-07T00:28:16.136Z,4.60
2018-08-07T00:30:44.146Z,4.00
2018-08-07T00:33:12.158Z,4.63
2018-08-07T00:35:40.175Z,5.10
2018-08-07T00:38:08.199Z,4.40
2018-08-07T00:40:36.199Z,4.10
2018-08-07T00:43:04.211Z,5.07
2018-08-07T00:45:32.215Z,5.50
2018-08-07T00:48:00.233Z,4.30
2018-08-07T00:50:28.230Z,3.90
2018-08-07T00:52:56.250Z,4.60
2018-08-07T00:55:24.282Z,5.37
2018-08-07T00:57:52.308Z,5.40
2018-08-07T01:00:20.371Z,4.73
2018-08-07T01:02:48.406Z,4.80
2018-08-07T01:05:17.371Z,4.80
2018-08-07T01:07:45.369Z,5.10
2018-08-07T01:10:14.662Z,5.07
2018-08-07T01:12:42.792Z,4.70
2018-08-07T01:15:12.850Z,4.13
2018-08-07T01:17:40.942Z,5.47
2018-08-07T01:20:10.105Z,5.03
2018-08-07T01:22:38.484Z,4.87
2018-08-07T01:25:08.058Z,5.07
2018-08-07T01:27:36.080Z,4.83
2018-08-07T01:30:05.589Z,4.50
2018-08-07T01:32:33.601Z,4.30
2018-08-07T01:35:01.613Z,5.37
2018-08-07T01:37:29.625Z,4.20
2018-08-07T01:39:57.629Z,5.30
2018-08-07T01:42:25.658Z,4.60
2018-08-07T01:44:53.666Z,4.60
2018-08-07T01:47:21.670Z,5.07
2018-08-07T01:49:49.673Z,4.67
2018-08-07T01:52:17.682Z,4.93
2018-08-07T01:54:45.701Z,4.43
2018-08-07T01:57:13.709Z,4.90
2018-08-07T01:59:41.794Z,4.00
2018-08-07T02:02:09.804Z,4.23
2018-08-07T02:04:37.833Z,4.53
2018-08-07T02:07:05.854Z,3.60
2018-08-07T02:09:33.880Z,4.87
2018-08-07T02:12:01.875Z,4.07
2018-08-07T02:14:29.882Z,4.67
2018-08-07T02:16:57.930Z,3.50
2018-08-07T02:19:25.970Z,2.93
2018-08-07T02:21:53.988Z,4.27
2018-08-07T02:24:21.997Z,4.30
2018-08-07T02:26:50.010Z,4.40
2018-08-07T02:29:18.026Z,4.33
2018-08-07T02:31:46.047Z,4.00
2018-08-07T02:34:14.062Z,3.90
2018-08-07T02:36:42.071Z,3.97
2018-08-07T02:39:10.630Z,4.03
2018-08-07T02:41:39.012Z,3.80
2018-08-07T02:44:07.144Z,3.40
2018-08-07T02:46:35.379Z,3.83
2018-08-07T02:49:03.383Z,4.00
2018-08-07T02:51:31.414Z,3.70
2018-08-07T02:53:59.414Z,4.50
2018-08-07T02:56:27.420Z,3.53
2018-08-07T02:58:55.415Z,3.97
2018-08-07T03:01:23.415Z,3.93
2018-08-07T03:03:51.423Z,3.80
2018-08-07T03:06:19.432Z,3.53
2018-08-07T03:08:47.405Z,4.10
2018-08-07T03:11:15.392Z,4.17
2018-08-07T03:13:43.378Z,3.43
2018-08-07T03:16:11.371Z,2.90
2018-08-07T03:18:39.375Z,3.40
2018-08-07T03:21:07.368Z,3.20
2018-08-07T03:23:35.358Z,3.33
2018-08-07T03:26:03.362Z,3.10
2018-08-07T03:28:31.359Z,2.87
2018-08-07T03:30:59.372Z,3.20
2018-08-07T03:33:27.357Z,4.50
2018-08-07T03:35:55.353Z,3.50
2018-08-07T03:38:23.338Z,3.20
2018-08-07T03:40:51.338Z,3.07
2018-08-07T03:43:19.334Z,3.87
2018-08-07T03:45:47.339Z,2.97
2018-08-07T03:48:15.314Z,3.00
2018-08-07T03:50:43.305Z,3.17
2018-08-07T03:53:11.357Z,3.07
2018-08-07T03:55:39.276Z,3.23
2018-08-07T03:58:07.257Z,3.30
2018-08-07T04:00:40.949Z,2.80
2018-08-07T04:03:08.973Z,3.00
2018-08-07T04:05:36.971Z,2.93
2018-08-07T04:08:05.058Z,3.20
2018-08-07T04:10:33.078Z,3.23
2018-08-07T04:13:01.067Z,3.30
2018-08-07T04:15:29.058Z,3.20
2018-08-07T04:17:57.042Z,2.90
2018-08-07T04:20:25.022Z,3.60
2018-08-07T04:22:53.008Z,3.17
2018-08-07T04:25:21.026Z,3.40
2018-08-07T04:27:49.005Z,2.57
2018-08-07T04:30:18.245Z,4.13
2018-08-07T04:32:46.411Z,3.40
2018-08-07T04:35:15.117Z,3.63
2018-08-07T04:37:43.278Z,3.50
2018-08-07T04:40:11.413Z,3.63
2018-08-07T04:42:40.088Z,2.97
2018-08-07T04:45:09.226Z,2.73
2018-08-07T04:47:37.255Z,3.10
2018-08-07T04:50:05.585Z,3.33
2018-08-07T04:52:33.568Z,3.17
2018-08-07T04:55:01.554Z,3.10
2018-08-07T04:57:29.577Z,3.33
2018-08-07T04:59:57.549Z,3.80
2018-08-07T05:02:25.547Z,3.20
2018-08-07T05:04:53.580Z,3.50
2018-08-07T05:07:21.564Z,2.83
2018-08-07T05:09:49.563Z,4.00
2018-08-07T05:12:17.557Z,3.10
2018-08-07T05:14:45.547Z,3.37
2018-08-07T05:17:13.598Z,3.77
2018-08-07T05:19:41.601Z,3.73
2018-08-07T05:22:09.673Z,3.83
2018-08-07T05:24:37.679Z,3.00
2018-08-07T05:27:05.710Z,3.20
2018-08-07T05:29:33.689Z,2.90
2018-08-07T05:32:01.706Z,3.33
2018-08-07T05:34:29.685Z,3.07
2018-08-07T05:36:57.688Z,2.77
2018-08-07T05:39:25.696Z,2.80
2018-08-07T05:41:53.701Z,3.07
2018-08-07T05:44:21.702Z,2.80
2018-08-07T05:46:49.702Z,3.00
2018-08-07T05:49:17.713Z,3.20
2018-08-07T05:51:45.719Z,3.70
2018-08-07T05:54:13.713Z,3.47
2018-08-07T05:56:41.759Z,3.60
2018-08-07T05:59:09.871Z,2.67
2018-08-07T06:01:37.842Z,3.77
2018-08-07T06:04:05.995Z,4.00
2018-08-07T06:06:37.448Z,3.37
2018-08-07T06:09:06.128Z,2.90
2018-08-07T06:11:34.135Z,2.80
2018-08-07T06:14:02.124Z,3.43
2018-08-07T06:16:30.136Z,2.73
2018-08-07T06:18:58.115Z,2.87
2018-08-07T06:21:26.093Z,2.93
2018-08-07T06:23:54.093Z,3.00
2018-08-07T06:26:22.173Z,3.40
2018-08-07T06:28:50.242Z,3.00
2018-08-07T06:31:18.269Z,2.90
2018-08-07T06:33:46.235Z,2.57
2018-08-07T06:36:14.231Z,2.60
2018-08-07T06:38:42.274Z,2.53
2018-08-07T06:41:10.266Z,2.50
2018-08-07T06:43:38.349Z,2.60
2018-08-07T06:46:06.348Z,2.77
2018-08-07T06:48:34.387Z,2.17
2018-08-07T06:51:02.399Z,2.70
2018-08-07T06:53:30.401Z,2.30
2018-08-07T06:55:58.407Z,2.33
2018-08-07T06:58:26.467Z,2.40
2018-08-07T07:00:54.494Z,2.23
2018-08-07T07:03:22.498Z,3.23
2018-08-07T07:05:50.470Z,2.70
2018-08-07T07:08:18.597Z,2.97
2018-08-07T07:10:46.742Z,2.80
2018-08-07T07:13:14.722Z,2.07
2018-08-07T07:15:42.716Z,2.17
2018-08-07T07:18:10.973Z,2.50
2018-08-07T07:20:43.431Z,2.80
2018-08-07T07:23:11.470Z,2.80
2018-08-07T07:25:39.442Z,2.53
2018-08-07T07:28:07.458Z,2.60
2018-08-07T07:30:35.520Z,2.60
2018-08-07T07:33:03.526Z,2.70
2018-08-07T07:35:31.532Z,2.57
2018-08-07T07:37:59.587Z,2.40
2018-08-07T07:40:27.576Z,2.40
2018-08-07T07:42:55.584Z,2.60
2018-08-07T07:45:23.595Z,2.37
2018-08-07T07:48:04.662Z,2.50
2018-08-07T07:50:32.647Z,2.00
2018-08-07T07:53:00.642Z,2.50
2018-08-07T07:55:28.677Z,2.07
2018-08-07T07:57:56.697Z,2.63
2018-08-07T08:00:26.024Z,2.77
2018-08-07T08:02:54.137Z,2.80
2018-08-07T08:05:22.785Z,2.70
2018-08-07T08:07:50.802Z,2.97
2018-08-07T08:10:18.807Z,2.40
2018-08-07T08:12:46.824Z,2.07
2018-08-07T08:15:15.895Z,2.80
2018-08-07T08:17:44.856Z,2.47
2018-08-07T08:20:17.377Z,2.60
2018-08-07T08:22:45.422Z,2.60
2018-08-07T08:25:13.391Z,2.40
2018-08-07T08:27:41.401Z,2.33
2018-08-07T08:30:10.659Z,2.80
2018-08-07T08:32:38.559Z,2.37
2018-08-07T08:35:07.643Z,2.63
2018-08-07T08:37:36.045Z,2.33
2018-08-07T08:40:04.669Z,2.40
2018-08-07T08:42:32.627Z,2.60
2018-08-07T08:45:00.602Z,2.73
2018-08-07T08:47:28.563Z,2.37
2018-08-07T08:49:56.674Z,2.70
2018-08-07T08:52:24.674Z,2.23
2018-08-07T08:54:52.670Z,2.03
2018-08-07T08:57:20.650Z,2.27
2018-08-07T08:59:48.700Z,2.00
2018-08-07T09:02:16.716Z,2.53
2018-08-07T09:04:44.699Z,2.47
2018-08-07T09:07:12.683Z,2.67
2018-08-07T09:09:40.712Z,1.90
2018-08-07T09:12:08.705Z,2.10
2018-08-07T09:14:36.715Z,2.10
2018-08-07T09:17:04.732Z,2.30
2018-08-07T09:19:32.831Z,2.47
2018-08-07T09:22:00.807Z,2.30
2018-08-07T09:24:28.811Z,2.77
2018-08-07T09:26:56.803Z,3.03
2018-08-07T09:29:24.795Z,2.60
2018-08-07T09:31:52.828Z,3.00
2018-08-07T09:34:20.786Z,2.50
2018-08-07T09:36:48.780Z,2.57
2018-08-07T09:41:51.179Z,2.07
2018-08-07T09:44:19.195Z,2.37
2018-08-07T09:46:47.273Z,2.53
2018-08-07T09:49:15.396Z,2.60
2018-08-07T09:51:43.887Z,2.67
2018-08-07T09:54:12.049Z,2.40
2018-08-07T09:56:40.059Z,2.63
2018-08-07T09:59:15.119Z,2.53
2018-08-07T10:01:48.527Z,2.77
2018-08-07T10:04:16.614Z,3.10
2018-08-07T10:06:44.618Z,2.50
2018-08-07T10:09:12.599Z,3.13
2018-08-07T10:11:40.591Z,2.60
2018-08-07T10:14:08.582Z,3.17
2018-08-07T10:16:36.589Z,2.83
2018-08-07T10:19:04.611Z,2.30
2018-08-07T10:21:32.621Z,2.53
2018-08-07T10:24:00.589Z,2.80
2018-08-07T10:26:28.595Z,2.30
2018-08-07T10:28:56.563Z,2.20
2018-08-07T10:31:24.611Z,2.27
2018-08-07T10:33:52.600Z,2.23
2018-08-07T10:36:20.628Z,2.20
2018-08-07T10:38:48.607Z,2.20
2018-08-07T10:41:16.854Z,2.00
2018-08-07T10:43:45.054Z,1.87
2018-08-07T10:46:12.997Z,1.90
2018-08-07T10:48:41.044Z,2.20
2018-08-07T10:51:09.046Z,2.50
2018-08-07T10:53:37.021Z,2.30
2018-08-07T10:56:05.079Z,2.20
2018-08-07T10:58:33.059Z,2.63
2018-08-07T11:01:01.169Z,2.03
2018-08-07T11:03:29.144Z,1.90
2018-08-07T11:05:57.155Z,2.20
2018-08-07T11:08:25.157Z,2.57
2018-08-07T11:10:53.154Z,2.10
2018-08-07T11:13:21.145Z,1.97
2018-08-07T11:15:49.142Z,2.40
2018-08-07T11:18:17.143Z,2.60
2018-08-07T11:20:45.160Z,2.50
2018-08-07T11:23:13.142Z,2.40
2018-08-07T11:25:41.150Z,2.47
2018-08-07T11:28:09.140Z,2.57
2018-08-07T11:30:37.204Z,3.23
2018-08-07T11:33:05.431Z,2.50
2018-08-07T11:35:33.523Z,2.57
2018-08-07T11:38:01.815Z,2.47
2018-08-07T11:40:29.957Z,2.30
2018-08-07T11:42:58.360Z,2.20
2018-08-07T11:45:27.653Z,2.13
2018-08-07T11:47:55.672Z,2.50
2018-08-07T11:50:24.965Z,2.33
2018-08-07T11:52:52.942Z,2.40
2018-08-07T11:55:21.154Z,2.40
2018-08-07T11:57:49.664Z,2.70
2018-08-07T12:00:19.697Z,2.53
2018-08-07T12:02:47.773Z,2.70
2018-08-07T12:05:16.662Z,2.60
2018-08-07T12:07:44.662Z,2.43
2018-08-07T12:10:13.770Z,2.83
2018-08-07T12:12:42.523Z,2.87
2018-08-07T12:15:11.714Z,3.50
2018-08-07T12:17:39.728Z,3.40
2018-08-07T12:20:08.023Z,3.13
2018-08-07T12:22:36.012Z,4.50
2018-08-07T12:25:04.590Z,3.80
2018-08-07T12:27:32.691Z,3.83
2018-08-07T12:30:00.927Z,3.17
2018-08-07T12:32:28.933Z,2.40
2018-08-07T12:34:57.045Z,2.97
2018-08-07T12:37:25.023Z,3.40
2018-08-07T12:39:53.131Z,2.90
2018-08-07T12:42:21.133Z,4.90
2018-08-07T12:44:49.139Z,3.93
2018-08-07T12:47:17.203Z,3.50
2018-08-07T12:49:45.190Z,3.87
2018-08-07T12:52:13.772Z,3.60
2018-08-07T12:54:41.848Z,3.63
2018-08-07T12:57:09.877Z,3.43
2018-08-07T12:59:37.927Z,3.90
2018-08-07T13:02:06.255Z,4.23
2018-08-07T13:04:34.424Z,4.77
2018-08-07T13:07:02.541Z,4.73
2018-08-07T13:09:30.584Z,4.57
2018-08-07T13:11:58.663Z,4.80
2018-08-07T13:14:26.694Z,5.33
2018-08-07T13:16:54.749Z,4.30
2018-08-07T13:19:22.816Z,4.23
2018-08-07T13:21:50.943Z,4.53
2018-08-07T13:24:19.027Z,4.77
2018-08-07T13:26:47.370Z,4.30
2018-08-07T13:29:15.386Z,3.63
2018-08-07T13:31:43.406Z,4.47
2018-08-07T13:34:11.591Z,4.43
2018-08-07T13:36:39.695Z,4.00
2018-08-07T13:39:08.321Z,4.00
2018-08-07T13:41:36.341Z,3.80
2018-08-07T13:44:05.039Z,4.47
2018-08-07T13:46:33.061Z,4.23
2018-08-07T13:49:01.111Z,5.50
2018-08-07T13:51:29.147Z,4.00
2018-08-07T13:53:57.171Z,4.50
2018-08-07T13:58:59.605Z,4.03
2018-08-07T14:01:27.614Z,3.80
2018-08-07T14:03:55.628Z,3.30
2018-08-07T14:06:23.611Z,4.23
2018-08-07T14:08:51.645Z,3.37
2018-08-07T14:11:19.737Z,3.20
2018-08-07T14:13:47.923Z,4.00
2018-08-07T14:16:15.914Z,3.40
2018-08-07T14:18:43.998Z,3.63
2018-08-07T14:21:12.022Z,3.40
2018-08-07T14:23:45.761Z,3.93
2018-08-07T14:26:13.785Z,4.47
2018-08-07T14:28:41.841Z,3.23
2018-08-07T14:31:10.004Z,3.33
2018-08-07T14:33:38.000Z,3.10
2018-08-07T14:36:11.636Z,3.97
2018-08-07T14:38:39.642Z,3.40
2018-08-07T15:24:47.375Z,3.30
2018-08-07T15:27:15.404Z,3.43
2018-08-07T15:29:43.395Z,3.40
2018-08-07T15:32:11.508Z,4.30
2018-08-07T15:34:39.521Z,3.57
2018-08-07T15:37:07.556Z,3.80
2018-08-07T15:39:35.726Z,3.60
2018-08-07T15:42:03.759Z,3.80
2018-08-07T15:44:31.795Z,3.20
2018-08-07T15:46:59.824Z,4.00
2018-08-07T15:49:27.911Z,3.57
2018-08-07T15:51:55.915Z,3.60
2018-08-07T15:54:23.933Z,3.53
2018-08-07T15:56:52.002Z,3.30
2018-08-07T15:59:19.974Z,3.20
2018-08-07T16:01:49.094Z,3.43
2018-08-07T16:04:17.120Z,3.07
2018-08-07T16:06:45.120Z,3.17
2018-08-07T16:09:13.138Z,3.23
2018-08-07T16:11:41.129Z,2.83
2018-08-07T16:14:09.136Z,2.90
2018-08-07T16:16:37.161Z,3.10
2018-08-07T16:19:05.622Z,3.80
2018-08-07T16:21:33.631Z,2.73
2018-08-07T16:24:01.728Z,2.70
2018-08-07T16:26:29.725Z,3.17
2018-08-07T16:28:57.724Z,2.83
2018-08-07T16:31:25.826Z,3.53
2018-08-07T16:33:53.845Z,3.17
2018-08-07T16:36:21.875Z,3.87
2018-08-07T16:38:49.909Z,3.23
2018-08-07T16:41:18.027Z,3.80
2018-08-07T16:43:46.027Z,3.40
2018-08-07T16:46:14.040Z,3.47
2018-08-07T16:48:42.039Z,3.10
2018-08-07T16:51:10.095Z,3.40
2018-08-07T16:53:38.047Z,3.20
2018-08-07T16:56:06.064Z,4.37
2018-08-07T16:58:34.071Z,4.03
2018-08-07T17:01:02.061Z,3.80
2018-08-07T17:03:30.139Z,3.73
2018-08-07T17:05:58.167Z,4.10
2018-08-07T17:08:26.175Z,3.57
2018-08-07T17:10:54.268Z,3.40
2018-08-07T17:13:22.290Z,3.13
2018-08-07T17:15:50.292Z,3.17
2018-08-07T17:18:18.513Z,3.03
2018-08-07T17:20:46.539Z,2.97
2018-08-07T17:23:14.522Z,2.90
2018-08-07T17:25:42.522Z,3.47
2018-08-07T17:28:10.498Z,2.83
2018-08-07T17:30:38.476Z,3.30
2018-08-07T17:33:06.469Z,3.33
2018-08-07T17:35:34.483Z,3.30
2018-08-07T17:38:02.467Z,3.97
2018-08-07T17:40:30.480Z,3.43
2018-08-07T17:42:58.966Z,3.60
2018-08-07T17:45:33.407Z,3.80
2018-08-07T17:48:01.392Z,3.70
2018-08-07T17:50:29.406Z,4.33
2018-08-07T17:52:57.819Z,4.13
2018-08-07T17:55:25.810Z,4.20
2018-08-07T17:57:54.159Z,4.43
2018-08-07T18:00:23.247Z,3.90
2018-08-07T18:02:51.346Z,4.67
2018-08-07T18:05:19.346Z,4.20
2018-08-07T18:07:48.460Z,4.60
2018-08-07T18:10:17.083Z,4.30
2018-08-07T18:12:45.151Z,5.17
2018-08-07T18:15:14.131Z,4.47
2018-08-07T18:17:42.737Z,5.00
2018-08-07T18:20:12.703Z,4.77
2018-08-07T18:22:40.831Z,4.50
2018-08-07T18:25:09.276Z,5.30
2018-08-07T18:27:37.317Z,5.60
2018-08-07T18:30:08.004Z,5.03
2018-08-07T18:32:36.473Z,5.03
2018-08-07T18:35:04.970Z,5.50
2018-08-07T18:37:32.988Z,9.00
2018-08-07T18:40:00.971Z,9.13
2018-08-07T18:42:28.973Z,6.73
2018-08-07T18:44:56.979Z,5.07
2018-08-07T18:47:24.998Z,5.20
2018-08-07T18:49:52.999Z,4.53
2018-08-07T18:52:21.029Z,5.17
2018-08-07T18:54:49.088Z,4.80
2018-08-07T18:57:17.152Z,4.63
2018-08-07T18:59:45.099Z,5.30
2018-08-07T19:02:13.158Z,4.77
2018-08-07T19:04:41.169Z,5.07
2018-08-07T19:07:09.168Z,5.40
2018-08-07T19:09:37.174Z,5.17
2018-08-07T19:12:05.171Z,5.03
2018-08-07T19:14:33.172Z,5.70
2018-08-07T19:17:01.443Z,5.73
2018-08-07T19:19:29.553Z,5.60
2018-08-07T19:21:57.576Z,5.70
2018-08-07T19:24:25.590Z,5.10
2018-08-07T19:26:53.595Z,5.03
2018-08-07T19:29:21.658Z,4.80
2018-08-07T19:31:49.643Z,5.70
2018-08-07T19:34:17.646Z,5.43
2018-08-07T19:36:45.670Z,4.80
2018-08-07T19:39:13.992Z,5.47
2018-08-07T19:41:41.998Z,5.40
2018-08-07T19:44:10.018Z,5.10
2018-08-07T19:46:38.408Z,4.77
2018-08-07T19:49:06.415Z,5.63
2018-08-07T19:51:34.437Z,5.17
2018-08-07T19:54:02.443Z,5.90
2018-08-07T19:56:30.486Z,5.40
2018-08-07T19:58:58.506Z,4.73
2018-08-07T20:01:26.514Z,5.40
2018-08-07T20:03:54.566Z,6.93
2018-08-07T20:06:22.563Z,6.50
2018-08-07T20:08:50.640Z,6.13
2018-08-07T20:11:19.211Z,6.23
2018-08-07T20:13:47.231Z,7.07
2018-08-07T20:16:15.230Z,6.57
2018-08-07T20:18:43.278Z,6.23
2018-08-07T20:21:11.325Z,6.20
2018-08-07T20:23:39.433Z,7.20
2018-08-07T20:26:07.772Z,6.23
2018-08-07T20:28:35.780Z,6.77
2018-08-07T20:31:03.843Z,5.70
2018-08-07T20:33:31.850Z,5.90
2018-08-07T20:35:59.904Z,6.60
2018-08-07T20:38:27.923Z,5.40
2018-08-07T20:40:56.003Z,5.17
2018-08-07T20:43:24.010Z,4.67
2018-08-07T20:45:52.007Z,4.90
2018-08-07T20:48:20.131Z,5.13
2018-08-07T20:50:48.179Z,6.33
2018-08-07T20:53:16.170Z,6.00
2018-08-07T20:55:44.141Z,6.03
2018-08-07T20:58:12.252Z,5.60
2018-08-07T21:00:40.255Z,5.57
2018-08-07T21:03:08.243Z,5.57
2018-08-07T21:05:36.225Z,6.53
2018-08-07T21:08:04.236Z,5.90
2018-08-07T21:10:32.218Z,6.30
2018-08-07T21:13:00.207Z,6.00
2018-08-07T21:15:28.206Z,6.40
2018-08-07T21:17:56.224Z,7.00
2018-08-07T21:20:24.798Z,5.90
2018-08-07T21:22:52.777Z,6.00
2018-08-07T21:25:21.828Z,5.90
2018-08-07T21:27:51.665Z,5.63
2018-08-07T21:30:22.029Z,6.10
2018-08-07T21:32:50.005Z,5.80
2018-08-07T21:35:17.993Z,6.03
2018-08-07T21:37:45.955Z,6.07
2018-08-07T21:40:15.642Z,6.67
2018-08-07T21:42:43.991Z,5.87
2018-08-07T21:45:12.076Z,5.70
2018-08-07T21:47:40.061Z,6.80
2018-08-07T21:50:10.357Z,5.43
2018-08-07T21:52:38.486Z,5.87
2018-08-07T21:55:07.621Z,6.00
2018-08-07T21:57:35.699Z,5.90
2018-08-07T22:00:05.739Z,6.27
2018-08-07T22:02:33.746Z,6.70
2018-08-07T22:05:01.752Z,6.63
2018-08-07T22:07:29.727Z,6.60
2018-08-07T22:09:57.742Z,5.90
2018-08-07T22:12:25.723Z,6.37
2018-08-07T22:14:53.758Z,6.80
2018-08-07T22:17:21.756Z,6.13
2018-08-07T22:19:49.747Z,6.00
2018-08-07T22:22:17.729Z,6.47
2018-08-07T22:24:45.746Z,7.10
2018-08-07T22:27:13.717Z,6.80
2018-08-07T22:29:41.710Z,6.73
2018-08-07T22:32:09.693Z,6.13
2018-08-07T22:34:37.681Z,6.00
2018-08-07T22:37:05.687Z,6.67
2018-08-07T22:39:33.667Z,6.80
2018-08-07T22:42:01.646Z,6.43
2018-08-07T22:44:29.637Z,6.53
2018-08-07T22:46:57.626Z,7.70
2018-08-07T22:49:25.620Z,6.43
2018-08-07T22:51:53.598Z,6.30
2018-08-07T22:54:21.600Z,7.33
2018-08-07T22:56:49.606Z,6.83
2018-08-07T22:59:17.606Z,6.40
2018-08-07T23:01:45.576Z,6.37
2018-08-07T23:04:13.587Z,7.30
2018-08-07T23:06:41.571Z,6.60
2018-08-07T23:09:09.654Z,6.80
2018-08-07T23:11:37.654Z,6.60
2018-08-07T23:14:05.631Z,6.07
2018-08-07T23:16:33.623Z,7.60
2018-08-07T23:19:01.626Z,6.60
2018-08-07T23:21:29.609Z,6.53
2018-08-07T23:23:57.574Z,6.73
2018-08-07T23:26:25.563Z,6.50
2018-08-07T23:28:53.526Z,6.83
2018-08-07T23:31:21.518Z,6.70
2018-08-07T23:33:49.478Z,6.90
2018-08-07T23:36:17.450Z,5.90
2018-08-07T23:38:45.419Z,6.73
2018-08-07T23:41:13.400Z,6.47
2018-08-07T23:43:41.373Z,6.20
2018-08-07T23:46:09.352Z,6.50
2018-08-07T23:48:37.338Z,7.00
2018-08-07T23:51:05.375Z,8.03
2018-08-07T23:53:33.358Z,6.37
2018-08-07T23:56:01.343Z,6.20
2018-08-07T23:58:56.947Z,7.00
